Kobe Express — JG5504 — position and weather

sailwx.info

Track history (hours):
 
Tides and Currents Weather Stations Pressure Air Temp Water Temp Dewpoint Dewpoint Depression Visibility Wind Speed Wind Dir Waves Ship Positions

Kobe Express

Last reported at 2018-Jan-17 23:57 UTC. Time now 2018-Jan-17 23:59 UTC.
Position N 34°41' E 135°12'.

Length 170 m; draft 6.5 m.

Type: Passenger vessel. MMSI: 431301684.

Date/timePositionNaut miles runAvg speedWind from/ knotsBaromVisibWave heightAir tempDewpointWater temp
2018-Jan-17 23:57N 34°41' E 135°12'  
2018-Jan-12 13:37N 33°37' E 134°42'220.6
2018-Jan-12 13:30N 33°38' E 134°43'1121.1
2018-Jan-12 13:00N 33°47' E 134°51'1121.7
2018-Jan-12 12:30N 33°57' E 134°55'1121.7
2018-Jan-12 12:01N 34°08' E 134°57'1122.1
2018-Jan-12 11:31N 34°19' E 134°58'1121.4
2018-Jan-12 11:00N 34°29' E 135°03'1020.9
2018-Jan-12 10:30N 34°37' E 135°11'4 7.3
2018-Jan-12 10:00N 34°41' E 135°12'0 0.0
2018-Jan-12 09:31N 34°41' E 135°12'0 0.0
2018-Jan-12 09:01N 34°41' E 135°12'0 0.0
2018-Jan-12 08:30N 34°41' E 135°12'0 0.0
2018-Jan-12 08:00N 34°41' E 135°12'0 0.0
2018-Jan-12 07:31N 34°41' E 135°12'0 0.0
2018-Jan-12 07:00N 34°41' E 135°12'0 0.0
2018-Jan-12 06:30N 34°41' E 135°12'0 0.0
2018-Jan-12 06:01N 34°41' E 135°12'0 0.0
2018-Jan-12 05:30N 34°41' E 135°12'0 0.0
2018-Jan-12 05:01N 34°41' E 135°12'0 0.0
2018-Jan-12 04:31N 34°41' E 135°12'0 0.0
2018-Jan-12 04:01N 34°41' E 135°12'0 0.0
2018-Jan-12 03:31N 34°41' E 135°12'0 0.0
2018-Jan-12 03:01N 34°41' E 135°12'0 0.0
2018-Jan-12 02:30N 34°41' E 135°12'0 0.0
2018-Jan-12 02:00N 34°41' E 135°12'0 0.0
2018-Jan-12 01:30N 34°41' E 135°12'0 0.0
2018-Jan-12 01:00N 34°41' E 135°12'0 0.0
2018-Jan-12 00:31N 34°41' E 135°12'0 0.0
2018-Jan-12 00:00N 34°41' E 135°12'0 0.0
2018-Jan-11 23:31N 34°41' E 135°12'0 0.0
2018-Jan-11 23:01N 34°41' E 135°12'0 0.0
2018-Jan-11 22:30N 34°41' E 135°12'4 8.4
2018-Jan-11 22:00N 34°37' E 135°10'1122.9
2018-Jan-11 21:31N 34°26' E 135°05'1223.8
2018-Jan-11 21:01N 34°16' E 134°59'1223.3
2018-Jan-11 20:31N 34°04' E 134°57'1122.9
2018-Jan-11 20:00N 33°53' E 134°53'1122.5
2018-Jan-11 19:30N 33°43' E 134°46'96 3.7
2018-Jan-10 17:57N 32°47' E 133°13'8620.9
2018-Jan-10 13:50N 33°35' E 134°39'721.6
2018-Jan-10 13:30N 33°41' E 134°44'1121.7
2018-Jan-10 13:00N 33°49' E 134°52'1122.4
2018-Jan-10 12:31N 34°00' E 134°55'1122.4
2018-Jan-10 12:01N 34°11' E 134°57'1223.4
2018-Jan-10 11:31N 34°23' E 135°00'1122.8
2018-Jan-10 11:01N 34°32' E 135°07'816.8
2018-Jan-10 10:30N 34°40' E 135°11'1 2.2
2018-Jan-10 10:00N 34°41' E 135°12'0 0.0
2018-Jan-10 09:30N 34°41' E 135°12'0 0.0
2018-Jan-10 09:00N 34°41' E 135°12'0 0.0
2018-Jan-10 08:31N 34°41' E 135°12'0 0.0
2018-Jan-10 08:00N 34°41' E 135°12'0 0.0
2018-Jan-10 07:30N 34°41' E 135°12'0 0.0
2018-Jan-10 07:00N 34°41' E 135°12'0 0.0
2018-Jan-10 06:30N 34°41' E 135°12'0 0.0
2018-Jan-10 06:00N 34°41' E 135°12'0 0.0
2018-Jan-10 05:30N 34°41' E 135°12'0 0.0
2018-Jan-10 05:00N 34°41' E 135°12'0 0.0
2018-Jan-10 04:31N 34°41' E 135°12'0 0.0
2018-Jan-10 04:01N 34°41' E 135°12'0 0.0
2018-Jan-10 03:31N 34°41' E 135°12'0 0.0
2018-Jan-10 03:01N 34°41' E 135°12'0 0.0
2018-Jan-10 02:30N 34°41' E 135°12'0 0.0
2018-Jan-10 02:00N 34°41' E 135°12'0 0.0
2018-Jan-10 01:30N 34°41' E 135°12'0 0.0
2018-Jan-10 01:00N 34°41' E 135°12'0 0.0
2018-Jan-10 00:30N 34°41' E 135°12'0 0.0
2018-Jan-10 00:01N 34°41' E 135°12'0 0.0
2018-Jan-09 23:30N 34°41' E 135°12'0 0.0
2018-Jan-09 23:00N 34°41' E 135°12'0 0.0
2018-Jan-09 22:30N 34°41' E 135°12'4 7.1
2018-Jan-09 22:01N 34°37' E 135°11'1122.5
2018-Jan-09 21:30N 34°27' E 135°06'1122.6
2018-Jan-09 21:01N 34°17' E 134°59'1122.9
2018-Jan-09 20:31N 34°06' E 134°58'1122.2
2018-Jan-09 20:00N 33°55' E 134°55'1222.5
2018-Jan-09 19:28N 33°45' E 134°47'9822.2
2018-Jan-09 15:02N 32°42' E 133°16'94 3.7
2018-Jan-08 13:34N 33°42' E 134°43'120.7
2018-Jan-08 13:30N 33°43' E 134°44'1020.2
2018-Jan-08 13:01N 33°50' E 134°52'1019.9
2018-Jan-08 12:30N 34°00' E 134°55'1019.9
2018-Jan-08 12:01N 34°10' E 134°57'1021.0
2018-Jan-08 11:31N 34°20' E 134°59'1122.0
2018-Jan-08 11:01N 34°30' E 135°05'1019.8
2018-Jan-08 10:31N 34°39' E 135°11'2 4.9
2018-Jan-08 10:00N 34°41' E 135°12'0 0.0
2018-Jan-08 09:30N 34°41' E 135°12'0 0.0
2018-Jan-08 09:00N 34°41' E 135°12'0 0.0
2018-Jan-08 08:31N 34°41' E 135°12'0 0.0
2018-Jan-08 08:00N 34°41' E 135°12'0 0.0
2018-Jan-08 07:30N 34°41' E 135°12'0 0.0
2018-Jan-08 07:00N 34°41' E 135°12'0 0.0
2018-Jan-08 06:30N 34°41' E 135°12'0 0.0
2018-Jan-08 06:00N 34°41' E 135°12'0 0.0
2018-Jan-08 05:30N 34°41' E 135°12'0 0.0
2018-Jan-08 05:00N 34°41' E 135°12'0 0.0
2018-Jan-08 04:30N 34°41' E 135°12'0 0.0
2018-Jan-08 04:00N 34°41' E 135°12'0 0.0
2018-Jan-08 03:31N 34°41' E 135°12'0 0.0
2018-Jan-08 03:00N 34°41' E 135°12'0 0.0
2018-Jan-08 02:30N 34°41' E 135°12'0 0.0
2018-Jan-08 02:00N 34°41' E 135°12'0 0.0
2018-Jan-08 01:30N 34°41' E 135°12'0 0.0
2018-Jan-08 01:00N 34°41' E 135°12'0 0.0
2018-Jan-08 00:30N 34°41' E 135°12'0 0.0
2018-Jan-08 00:00N 34°41' E 135°12'0 0.0
2018-Jan-07 23:30N 34°41' E 135°12'0 0.0
2018-Jan-07 23:00N 34°41' E 135°12'0 0.0
2018-Jan-07 22:30N 34°41' E 135°12'2 3.0
2018-Jan-07 22:01N 34°39' E 135°11'918.9
2018-Jan-07 21:31N 34°31' E 135°06'1020.2
2018-Jan-07 21:01N 34°21' E 135°02'1019.6
2018-Jan-07 20:31N 34°12' E 134°58'1121.7
2018-Jan-07 20:01N 34°02' E 134°55'1121.6
2018-Jan-07 19:31N 33°51' E 134°52'1120.9
2018-Jan-07 19:00N 33°42' E 134°45'95 3.8
2018-Jan-06 17:54N 32°46' E 133°14'9020.8
2018-Jan-06 13:34N 33°39' E 134°41'121.2
2018-Jan-06 13:30N 33°40' E 134°42'1121.5
2018-Jan-06 13:00N 33°48' E 134°50'1021.3
2018-Jan-06 12:30N 33°59' E 134°54'1121.8
2018-Jan-06 12:01N 34°09' E 134°56'1121.5
2018-Jan-06 11:31N 34°20' E 134°58'1121.2
2018-Jan-06 11:01N 34°29' E 135°04'1020.7
2018-Jan-06 10:31N 34°38' E 135°11'3 6.1
2018-Jan-06 10:00N 34°41' E 135°12'0 0.0
2018-Jan-06 09:31N 34°41' E 135°12'0 0.0
2018-Jan-06 09:01N 34°41' E 135°12'0 0.0
2018-Jan-06 08:30N 34°41' E 135°12'0 0.0
2018-Jan-06 08:00N 34°41' E 135°12'0 0.0
2018-Jan-06 07:31N 34°41' E 135°12'0 0.0
2018-Jan-06 07:00N 34°41' E 135°12'0 0.0
2018-Jan-06 06:30N 34°41' E 135°12'0 0.0
2018-Jan-06 06:00N 34°41' E 135°12'0 0.0
2018-Jan-06 05:31N 34°41' E 135°12'0 0.0
2018-Jan-06 05:00N 34°41' E 135°12'0 0.0
2018-Jan-06 04:30N 34°41' E 135°12'0 0.0
2018-Jan-06 04:00N 34°41' E 135°12'0 0.0
2018-Jan-06 03:30N 34°41' E 135°12'0 0.0
2018-Jan-06 03:00N 34°41' E 135°12'0 0.0
2018-Jan-06 02:31N 34°41' E 135°12'0 0.0
2018-Jan-06 02:00N 34°41' E 135°12'0 0.0
2018-Jan-06 01:31N 34°41' E 135°12'0 0.0
2018-Jan-06 01:00N 34°41' E 135°12'0 0.0
2018-Jan-06 00:31N 34°41' E 135°12'0 0.0
2018-Jan-06 00:00N 34°41' E 135°12'0 0.0
2018-Jan-05 23:31N 34°41' E 135°12'0 0.0
2018-Jan-05 23:00N 34°41' E 135°12'0 0.0
2018-Jan-05 22:31N 34°41' E 135°12'4 8.1
2018-Jan-05 22:01N 34°37' E 135°10'1122.2
2018-Jan-05 21:31N 34°27' E 135°05'1122.4
2018-Jan-05 21:01N 34°17' E 134°59'1122.1
2018-Jan-05 20:31N 34°06' E 134°57'1122.8
2018-Jan-05 20:01N 33°55' E 134°54'1122.2
2018-Jan-05 19:30N 33°45' E 134°48'12 0.4
2018-Jan-04 13:49N 33°36' E 134°38'720.8
2018-Jan-04 13:30N 33°41' E 134°43'1021.0
2018-Jan-04 13:00N 33°49' E 134°51'1121.7
2018-Jan-04 12:31N 33°59' E 134°54'1121.5
2018-Jan-04 12:00N 34°10' E 134°57'1121.0
2018-Jan-04 11:30N 34°20' E 134°59'1020.9
2018-Jan-04 11:00N 34°29' E 135°05'1020.0
2018-Jan-04 10:31N 34°38' E 135°11'3 6.0
2018-Jan-04 10:00N 34°41' E 135°12'0 0.0
2018-Jan-04 09:30N 34°41' E 135°12'0 0.0
2018-Jan-04 09:00N 34°41' E 135°12'0 0.0
2018-Jan-04 08:30N 34°41' E 135°12'0 0.0
2018-Jan-04 08:00N 34°41' E 135°12'0 0.0
2018-Jan-04 07:30N 34°41' E 135°12'0 0.0
2018-Jan-04 07:00N 34°41' E 135°12'0 0.0
2018-Jan-04 06:30N 34°41' E 135°12'0 0.0
2018-Jan-04 06:00N 34°41' E 135°12'0 0.0
2018-Jan-04 05:30N 34°41' E 135°12'0 0.0
2018-Jan-04 05:00N 34°41' E 135°12'0 0.0
2018-Jan-04 04:30N 34°41' E 135°12'0 0.0
2018-Jan-04 04:00N 34°41' E 135°12'0 0.0
2018-Jan-04 03:30N 34°41' E 135°12'0 0.0
2018-Jan-04 03:00N 34°41' E 135°12'0 0.0
2018-Jan-04 02:30N 34°41' E 135°12'0 0.0
2018-Jan-04 02:00N 34°41' E 135°12'0 0.0
2018-Jan-04 01:30N 34°41' E 135°12'0 0.0
2018-Jan-04 01:00N 34°41' E 135°12'0 0.0
2018-Jan-04 00:30N 34°41' E 135°12'0 0.0
2018-Jan-04 00:00N 34°41' E 135°12'0 0.0
2018-Jan-03 23:30N 34°41' E 135°12'0 0.0
2018-Jan-03 23:00N 34°41' E 135°12'0 0.0
2018-Jan-03 22:30N 34°41' E 135°12'3 5.5
2018-Jan-03 22:00N 34°38' E 135°11'1122.0
2018-Jan-03 21:31N 34°28' E 135°05'1223.1
2018-Jan-03 21:01N 34°18' E 134°60'1121.9
2018-Jan-03 20:30N 34°07' E 134°58'1122.5
2018-Jan-03 20:00N 33°56' E 134°56'1122.0
2018-Jan-03 19:30N 33°45' E 134°51'101 3.9
2018-Jan-02 17:52N 32°44' E 133°15'  
Track history (hours):
 
Tides and Currents Weather Stations Pressure Air Temp Water Temp Dewpoint Dewpoint Depression Visibility Wind Speed Wind Dir Waves Ship Positions

Kobe Express

Last reported at 2018-Jan-17 23:57 UTC. Time now 2018-Jan-17 23:59 UTC.
Position N 34°41' E 135°12'.

Length 170 m; draft 6.5 m.

Type: Passenger vessel. MMSI: 431301684.

Date/timePositionNaut miles runAvg speedWind from/ knotsBaromVisibWave heightAir tempDewpointWater temp
2018-Jan-17 23:57N 34°41' E 135°12'  
2018-Jan-12 13:37N 33°37' E 134°42'220.6
2018-Jan-12 13:30N 33°38' E 134°43'1121.1
2018-Jan-12 13:00N 33°47' E 134°51'1121.7
2018-Jan-12 12:30N 33°57' E 134°55'1121.7
2018-Jan-12 12:01N 34°08' E 134°57'1122.1
2018-Jan-12 11:31N 34°19' E 134°58'1121.4
2018-Jan-12 11:00N 34°29' E 135°03'1020.9
2018-Jan-12 10:30N 34°37' E 135°11'4 7.3
2018-Jan-12 10:00N 34°41' E 135°12'0 0.0
2018-Jan-12 09:31N 34°41' E 135°12'0 0.0
2018-Jan-12 09:01N 34°41' E 135°12'0 0.0
2018-Jan-12 08:30N 34°41' E 135°12'0 0.0
2018-Jan-12 08:00N 34°41' E 135°12'0 0.0
2018-Jan-12 07:31N 34°41' E 135°12'0 0.0
2018-Jan-12 07:00N 34°41' E 135°12'0 0.0
2018-Jan-12 06:30N 34°41' E 135°12'0 0.0
2018-Jan-12 06:01N 34°41' E 135°12'0 0.0
2018-Jan-12 05:30N 34°41' E 135°12'0 0.0
2018-Jan-12 05:01N 34°41' E 135°12'0 0.0
2018-Jan-12 04:31N 34°41' E 135°12'0 0.0
2018-Jan-12 04:01N 34°41' E 135°12'0 0.0
2018-Jan-12 03:31N 34°41' E 135°12'0 0.0
2018-Jan-12 03:01N 34°41' E 135°12'0 0.0
2018-Jan-12 02:30N 34°41' E 135°12'0 0.0
2018-Jan-12 02:00N 34°41' E 135°12'0 0.0
2018-Jan-12 01:30N 34°41' E 135°12'0 0.0
2018-Jan-12 01:00N 34°41' E 135°12'0 0.0
2018-Jan-12 00:31N 34°41' E 135°12'0 0.0
2018-Jan-12 00:00N 34°41' E 135°12'0 0.0
2018-Jan-11 23:31N 34°41' E 135°12'0 0.0
2018-Jan-11 23:01N 34°41' E 135°12'0 0.0
2018-Jan-11 22:30N 34°41' E 135°12'4 8.4
2018-Jan-11 22:00N 34°37' E 135°10'1122.9
2018-Jan-11 21:31N 34°26' E 135°05'1223.8
2018-Jan-11 21:01N 34°16' E 134°59'1223.3
2018-Jan-11 20:31N 34°04' E 134°57'1122.9
2018-Jan-11 20:00N 33°53' E 134°53'1122.5
2018-Jan-11 19:30N 33°43' E 134°46'96 3.7
2018-Jan-10 17:57N 32°47' E 133°13'8620.9
2018-Jan-10 13:50N 33°35' E 134°39'721.6
2018-Jan-10 13:30N 33°41' E 134°44'1121.7
2018-Jan-10 13:00N 33°49' E 134°52'1122.4
2018-Jan-10 12:31N 34°00' E 134°55'1122.4
2018-Jan-10 12:01N 34°11' E 134°57'1223.4
2018-Jan-10 11:31N 34°23' E 135°00'1122.8
2018-Jan-10 11:01N 34°32' E 135°07'816.8
2018-Jan-10 10:30N 34°40' E 135°11'1 2.2
2018-Jan-10 10:00N 34°41' E 135°12'0 0.0
2018-Jan-10 09:30N 34°41' E 135°12'0 0.0
2018-Jan-10 09:00N 34°41' E 135°12'0 0.0
2018-Jan-10 08:31N 34°41' E 135°12'0 0.0
2018-Jan-10 08:00N 34°41' E 135°12'0 0.0
2018-Jan-10 07:30N 34°41' E 135°12'0 0.0
2018-Jan-10 07:00N 34°41' E 135°12'0 0.0
2018-Jan-10 06:30N 34°41' E 135°12'0 0.0
2018-Jan-10 06:00N 34°41' E 135°12'0 0.0
2018-Jan-10 05:30N 34°41' E 135°12'0 0.0
2018-Jan-10 05:00N 34°41' E 135°12'0 0.0
2018-Jan-10 04:31N 34°41' E 135°12'0 0.0
2018-Jan-10 04:01N 34°41' E 135°12'0 0.0
2018-Jan-10 03:31N 34°41' E 135°12'0 0.0
2018-Jan-10 03:01N 34°41' E 135°12'0 0.0
2018-Jan-10 02:30N 34°41' E 135°12'0 0.0
2018-Jan-10 02:00N 34°41' E 135°12'0 0.0
2018-Jan-10 01:30N 34°41' E 135°12'0 0.0
2018-Jan-10 01:00N 34°41' E 135°12'0 0.0
2018-Jan-10 00:30N 34°41' E 135°12'0 0.0
2018-Jan-10 00:01N 34°41' E 135°12'0 0.0
2018-Jan-09 23:30N 34°41' E 135°12'0 0.0
2018-Jan-09 23:00N 34°41' E 135°12'0 0.0
2018-Jan-09 22:30N 34°41' E 135°12'4 7.1
2018-Jan-09 22:01N 34°37' E 135°11'1122.5
2018-Jan-09 21:30N 34°27' E 135°06'1122.6
2018-Jan-09 21:01N 34°17' E 134°59'1122.9
2018-Jan-09 20:31N 34°06' E 134°58'1122.2
2018-Jan-09 20:00N 33°55' E 134°55'1222.5
2018-Jan-09 19:28N 33°45' E 134°47'9822.2
2018-Jan-09 15:02N 32°42' E 133°16'94 3.7
2018-Jan-08 13:34N 33°42' E 134°43'120.7
2018-Jan-08 13:30N 33°43' E 134°44'1020.2
2018-Jan-08 13:01N 33°50' E 134°52'1019.9
2018-Jan-08 12:30N 34°00' E 134°55'1019.9
2018-Jan-08 12:01N 34°10' E 134°57'1021.0
2018-Jan-08 11:31N 34°20' E 134°59'1122.0
2018-Jan-08 11:01N 34°30' E 135°05'1019.8
2018-Jan-08 10:31N 34°39' E 135°11'2 4.9
2018-Jan-08 10:00N 34°41' E 135°12'0 0.0
2018-Jan-08 09:30N 34°41' E 135°12'0 0.0
2018-Jan-08 09:00N 34°41' E 135°12'0 0.0
2018-Jan-08 08:31N 34°41' E 135°12'0 0.0
2018-Jan-08 08:00N 34°41' E 135°12'0 0.0
2018-Jan-08 07:30N 34°41' E 135°12'0 0.0
2018-Jan-08 07:00N 34°41' E 135°12'0 0.0
2018-Jan-08 06:30N 34°41' E 135°12'0 0.0
2018-Jan-08 06:00N 34°41' E 135°12'0 0.0
2018-Jan-08 05:30N 34°41' E 135°12'0 0.0
2018-Jan-08 05:00N 34°41' E 135°12'0 0.0
2018-Jan-08 04:30N 34°41' E 135°12'0 0.0
2018-Jan-08 04:00N 34°41' E 135°12'0 0.0
2018-Jan-08 03:31N 34°41' E 135°12'0 0.0
2018-Jan-08 03:00N 34°41' E 135°12'0 0.0
2018-Jan-08 02:30N 34°41' E 135°12'0 0.0
2018-Jan-08 02:00N 34°41' E 135°12'0 0.0
2018-Jan-08 01:30N 34°41' E 135°12'0 0.0
2018-Jan-08 01:00N 34°41' E 135°12'0 0.0
2018-Jan-08 00:30N 34°41' E 135°12'0 0.0
2018-Jan-08 00:00N 34°41' E 135°12'0 0.0
2018-Jan-07 23:30N 34°41' E 135°12'0 0.0
2018-Jan-07 23:00N 34°41' E 135°12'0 0.0
2018-Jan-07 22:30N 34°41' E 135°12'2 3.0
2018-Jan-07 22:01N 34°39' E 135°11'918.9
2018-Jan-07 21:31N 34°31' E 135°06'1020.2
2018-Jan-07 21:01N 34°21' E 135°02'1019.6
2018-Jan-07 20:31N 34°12' E 134°58'1121.7
2018-Jan-07 20:01N 34°02' E 134°55'1121.6
2018-Jan-07 19:31N 33°51' E 134°52'1120.9
2018-Jan-07 19:00N 33°42' E 134°45'95 3.8
2018-Jan-06 17:54N 32°46' E 133°14'9020.8
2018-Jan-06 13:34N 33°39' E 134°41'121.2
2018-Jan-06 13:30N 33°40' E 134°42'1121.5
2018-Jan-06 13:00N 33°48' E 134°50'1021.3
2018-Jan-06 12:30N 33°59' E 134°54'1121.8
2018-Jan-06 12:01N 34°09' E 134°56'1121.5
2018-Jan-06 11:31N 34°20' E 134°58'1121.2
2018-Jan-06 11:01N 34°29' E 135°04'1020.7
2018-Jan-06 10:31N 34°38' E 135°11'3 6.1
2018-Jan-06 10:00N 34°41' E 135°12'0 0.0
2018-Jan-06 09:31N 34°41' E 135°12'0 0.0
2018-Jan-06 09:01N 34°41' E 135°12'0 0.0
2018-Jan-06 08:30N 34°41' E 135°12'0 0.0
2018-Jan-06 08:00N 34°41' E 135°12'0 0.0
2018-Jan-06 07:31N 34°41' E 135°12'0 0.0
2018-Jan-06 07:00N 34°41' E 135°12'0 0.0
2018-Jan-06 06:30N 34°41' E 135°12'0 0.0
2018-Jan-06 06:00N 34°41' E 135°12'0 0.0
2018-Jan-06 05:31N 34°41' E 135°12'0 0.0
2018-Jan-06 05:00N 34°41' E 135°12'0 0.0
2018-Jan-06 04:30N 34°41' E 135°12'0 0.0
2018-Jan-06 04:00N 34°41' E 135°12'0 0.0
2018-Jan-06 03:30N 34°41' E 135°12'0 0.0
2018-Jan-06 03:00N 34°41' E 135°12'0 0.0
2018-Jan-06 02:31N 34°41' E 135°12'0 0.0
2018-Jan-06 02:00N 34°41' E 135°12'0 0.0
2018-Jan-06 01:31N 34°41' E 135°12'0 0.0
2018-Jan-06 01:00N 34°41' E 135°12'0 0.0
2018-Jan-06 00:31N 34°41' E 135°12'0 0.0
2018-Jan-06 00:00N 34°41' E 135°12'0 0.0
2018-Jan-05 23:31N 34°41' E 135°12'0 0.0
2018-Jan-05 23:00N 34°41' E 135°12'0 0.0
2018-Jan-05 22:31N 34°41' E 135°12'4 8.1
2018-Jan-05 22:01N 34°37' E 135°10'1122.2
2018-Jan-05 21:31N 34°27' E 135°05'1122.4
2018-Jan-05 21:01N 34°17' E 134°59'1122.1
2018-Jan-05 20:31N 34°06' E 134°57'1122.8
2018-Jan-05 20:01N 33°55' E 134°54'1122.2
2018-Jan-05 19:30N 33°45' E 134°48'12 0.4
2018-Jan-04 13:49N 33°36' E 134°38'720.8
2018-Jan-04 13:30N 33°41' E 134°43'1021.0
2018-Jan-04 13:00N 33°49' E 134°51'1121.7
2018-Jan-04 12:31N 33°59' E 134°54'1121.5
2018-Jan-04 12:00N 34°10' E 134°57'1121.0
2018-Jan-04 11:30N 34°20' E 134°59'1020.9
2018-Jan-04 11:00N 34°29' E 135°05'1020.0
2018-Jan-04 10:31N 34°38' E 135°11'3 6.0
2018-Jan-04 10:00N 34°41' E 135°12'0 0.0
2018-Jan-04 09:30N 34°41' E 135°12'0 0.0
2018-Jan-04 09:00N 34°41' E 135°12'0 0.0
2018-Jan-04 08:30N 34°41' E 135°12'0 0.0
2018-Jan-04 08:00N 34°41' E 135°12'0 0.0
2018-Jan-04 07:30N 34°41' E 135°12'0 0.0
2018-Jan-04 07:00N 34°41' E 135°12'0 0.0
2018-Jan-04 06:30N 34°41' E 135°12'0 0.0
2018-Jan-04 06:00N 34°41' E 135°12'0 0.0
2018-Jan-04 05:30N 34°41' E 135°12'0 0.0
2018-Jan-04 05:00N 34°41' E 135°12'0 0.0
2018-Jan-04 04:30N 34°41' E 135°12'0 0.0
2018-Jan-04 04:00N 34°41' E 135°12'0 0.0
2018-Jan-04 03:30N 34°41' E 135°12'0 0.0
2018-Jan-04 03:00N 34°41' E 135°12'0 0.0
2018-Jan-04 02:30N 34°41' E 135°12'0 0.0
2018-Jan-04 02:00N 34°41' E 135°12'0 0.0
2018-Jan-04 01:30N 34°41' E 135°12'0 0.0
2018-Jan-04 01:00N 34°41' E 135°12'0 0.0
2018-Jan-04 00:30N 34°41' E 135°12'0 0.0
2018-Jan-04 00:00N 34°41' E 135°12'0 0.0
2018-Jan-03 23:30N 34°41' E 135°12'0 0.0
2018-Jan-03 23:00N 34°41' E 135°12'0 0.0
2018-Jan-03 22:30N 34°41' E 135°12'3 5.5
2018-Jan-03 22:00N 34°38' E 135°11'1122.0
2018-Jan-03 21:31N 34°28' E 135°05'1223.1
2018-Jan-03 21:01N 34°18' E 134°60'1121.9
2018-Jan-03 20:30N 34°07' E 134°58'1122.5
2018-Jan-03 20:00N 33°56' E 134°56'1122.0
2018-Jan-03 19:30N 33°45' E 134°51'101 3.9
2018-Jan-02 17:52N 32°44' E 133°15'  

Dump ship's entire track history